X  Sluiten METAR luchtvaart weer gegevens      EHAM Amsterdam Airport Schiphol
Temperatuur
3°C Temperatuur
-1°C Dauwpunt
75% Vochtigheid



Wind
2 KM/U
1 MPH
0 M/S
1 KTS



Kalm
Noord
Huidig weer

Grotendeels bewolkt Grotendeels bewolkt
Luchtdruk 1028.92 (hPa) - 30.38 (inHg)
Zicht 6.2 (mijl) - 10 (km)
Vliegveld
Vliegveld code EHAM

Locatie : Amsterdam Airport Schiphol
Afstand: 2 (km)

Metar:
EHAM 151355Z VRB01KT 9999 BKN045 03/M01 Q1029 NOSIG

Tijd: 15-01-2021 14:55 CET